sensor_id;sensor_type;location;lat;lon;timestamp;temperature;humidity
68011;DHT22;54794;48.348;7.878;2023-04-03T00:01:11;10.50;64.60
68011;DHT22;54794;48.348;7.878;2023-04-03T00:03:38;10.50;64.60
68011;DHT22;54794;48.348;7.878;2023-04-03T00:06:07;10.50;64.60
68011;DHT22;54794;48.348;7.878;2023-04-03T00:08:37;10.50;64.60
68011;DHT22;54794;48.348;7.878;2023-04-03T00:11:06;10.50;64.60
68011;DHT22;54794;48.348;7.878;2023-04-03T00:13:34;10.50;64.60
68011;DHT22;54794;48.348;7.878;2023-04-03T00:16:01;10.50;64.70
68011;DHT22;54794;48.348;7.878;2023-04-03T00:18:30;10.50;64.70
68011;DHT22;54794;48.348;7.878;2023-04-03T00:20:58;10.50;64.60
68011;DHT22;54794;48.348;7.878;2023-04-03T00:23:25;10.50;64.70
68011;DHT22;54794;48.348;7.878;2023-04-03T00:25:52;10.40;64.60
68011;DHT22;54794;48.348;7.878;2023-04-03T00:28:20;10.50;64.60
68011;DHT22;54794;48.348;7.878;2023-04-03T00:30:51;10.50;64.70
68011;DHT22;54794;48.348;7.878;2023-04-03T00:33:19;10.50;64.60
68011;DHT22;54794;48.348;7.878;2023-04-03T00:35:48;10.50;64.70
68011;DHT22;54794;48.348;7.878;2023-04-03T00:38:16;10.60;64.70
68011;DHT22;54794;48.348;7.878;2023-04-03T00:40:46;10.50;64.60
68011;DHT22;54794;48.348;7.878;2023-04-03T00:43:20;10.50;64.50
68011;DHT22;54794;48.348;7.878;2023-04-03T00:45:51;10.50;64.40
68011;DHT22;54794;48.348;7.878;2023-04-03T00:48:33;10.50;64.40
68011;DHT22;54794;48.348;7.878;2023-04-03T00:51:03;10.50;64.20
68011;DHT22;54794;48.348;7.878;2023-04-03T00:53:38;10.50;64.20
68011;DHT22;54794;48.348;7.878;2023-04-03T00:56:27;10.50;64.20
68011;DHT22;54794;48.348;7.878;2023-04-03T00:59:30;10.50;64.20
68011;DHT22;54794;48.348;7.878;2023-04-03T01:02:01;10.40;63.70
68011;DHT22;54794;48.348;7.878;2023-04-03T01:04:37;10.40;64.00
68011;DHT22;54794;48.348;7.878;2023-04-03T01:07:11;10.40;63.80
68011;DHT22;54794;48.348;7.878;2023-04-03T01:09:41;10.30;63.90
68011;DHT22;54794;48.348;7.878;2023-04-03T01:12:16;10.30;64.00
68011;DHT22;54794;48.348;7.878;2023-04-03T01:14:44;10.30;64.00
68011;DHT22;54794;48.348;7.878;2023-04-03T01:22:56;10.20;64.00
68011;DHT22;54794;48.348;7.878;2023-04-03T01:25:33;10.20;63.80
68011;DHT22;54794;48.348;7.878;2023-04-03T01:28:01;10.20;64.00
68011;DHT22;54794;48.348;7.878;2023-04-03T01:30:32;10.20;64.00
68011;DHT22;54794;48.348;7.878;2023-04-03T01:33:03;10.20;64.00
68011;DHT22;54794;48.348;7.878;2023-04-03T01:35:30;10.30;64.00
68011;DHT22;54794;48.348;7.878;2023-04-03T01:37:57;10.20;64.00
68011;DHT22;54794;48.348;7.878;2023-04-03T01:40:24;10.10;63.90
68011;DHT22;54794;48.348;7.878;2023-04-03T01:42:51;10.10;63.90
68011;DHT22;54794;48.348;7.878;2023-04-03T01:45:18;10.10;64.00
68011;DHT22;54794;48.348;7.878;2023-04-03T01:47:45;10.10;63.90
68011;DHT22;54794;48.348;7.878;2023-04-03T01:50:12;10.30;64.00
68011;DHT22;54794;48.348;7.878;2023-04-03T01:52:39;10.10;63.90
68011;DHT22;54794;48.348;7.878;2023-04-03T01:55:06;10.10;64.00
68011;DHT22;54794;48.348;7.878;2023-04-03T01:57:33;10.10;64.00
68011;DHT22;54794;48.348;7.878;2023-04-03T02:00:00;10.10;64.10
68011;DHT22;54794;48.348;7.878;2023-04-03T02:02:27;10.10;64.00
68011;DHT22;54794;48.348;7.878;2023-04-03T02:04:54;10.10;64.10
68011;DHT22;54794;48.348;7.878;2023-04-03T02:07:21;10.10;64.00
68011;DHT22;54794;48.348;7.878;2023-04-03T02:09:48;10.10;64.00
68011;DHT22;54794;48.348;7.878;2023-04-03T02:12:15;10.10;64.10
68011;DHT22;54794;48.348;7.878;2023-04-03T02:14:42;10.10;64.10
68011;DHT22;54794;48.348;7.878;2023-04-03T02:17:09;10.10;64.10
68011;DHT22;54794;48.348;7.878;2023-04-03T02:19:36;10.10;64.00
68011;DHT22;54794;48.348;7.878;2023-04-03T02:22:04;10.00;64.00
68011;DHT22;54794;48.348;7.878;2023-04-03T02:24:31;10.10;64.00
68011;DHT22;54794;48.348;7.878;2023-04-03T02:26:59;10.10;64.10
68011;DHT22;54794;48.348;7.878;2023-04-03T02:29:26;10.10;64.10
68011;DHT22;54794;48.348;7.878;2023-04-03T02:31:53;10.20;64.10
68011;DHT22;54794;48.348;7.878;2023-04-03T02:34:20;10.00;63.90
68011;DHT22;54794;48.348;7.878;2023-04-03T02:36:47;10.00;63.90
68011;DHT22;54794;48.348;7.878;2023-04-03T02:39:14;10.10;64.00
68011;DHT22;54794;48.348;7.878;2023-04-03T02:41:41;10.10;63.90
68011;DHT22;54794;48.348;7.878;2023-04-03T02:44:09;9.90;63.80
68011;DHT22;54794;48.348;7.878;2023-04-03T02:46:37;10.00;63.80
68011;DHT22;54794;48.348;7.878;2023-04-03T02:49:04;10.00;63.80
68011;DHT22;54794;48.348;7.878;2023-04-03T02:51:31;10.00;63.80
68011;DHT22;54794;48.348;7.878;2023-04-03T02:53:58;9.90;63.80
68011;DHT22;54794;48.348;7.878;2023-04-03T02:56:25;9.90;63.80
68011;DHT22;54794;48.348;7.878;2023-04-03T02:58:53;9.90;63.70
68011;DHT22;54794;48.348;7.878;2023-04-03T03:01:20;10.00;63.80
68011;DHT22;54794;48.348;7.878;2023-04-03T03:03:47;10.00;63.70
68011;DHT22;54794;48.348;7.878;2023-04-03T03:06:15;9.90;63.60
68011;DHT22;54794;48.348;7.878;2023-04-03T03:08:43;9.90;63.60
68011;DHT22;54794;48.348;7.878;2023-04-03T03:11:11;9.90;63.60
68011;DHT22;54794;48.348;7.878;2023-04-03T03:13:38;9.90;63.70
68011;DHT22;54794;48.348;7.878;2023-04-03T03:16:06;9.80;63.50
68011;DHT22;54794;48.348;7.878;2023-04-03T03:18:34;9.90;63.60
68011;DHT22;54794;48.348;7.878;2023-04-03T03:21:01;9.90;63.60
68011;DHT22;54794;48.348;7.878;2023-04-03T03:23:30;9.90;63.60
68011;DHT22;54794;48.348;7.878;2023-04-03T03:26:04;9.90;63.50
68011;DHT22;54794;48.348;7.878;2023-04-03T03:28:33;9.80;63.50
68011;DHT22;54794;48.348;7.878;2023-04-03T03:31:01;9.80;63.60
68011;DHT22;54794;48.348;7.878;2023-04-03T03:33:28;9.70;63.60
68011;DHT22;54794;48.348;7.878;2023-04-03T03:35:56;9.80;63.60
68011;DHT22;54794;48.348;7.878;2023-04-03T03:38:24;9.80;63.60
68011;DHT22;54794;48.348;7.878;2023-04-03T03:40:51;9.70;63.50
68011;DHT22;54794;48.348;7.878;2023-04-03T03:43:18;9.70;63.50
68011;DHT22;54794;48.348;7.878;2023-04-03T03:45:50;9.70;63.50
68011;DHT22;54794;48.348;7.878;2023-04-03T03:48:19;9.70;63.50
68011;DHT22;54794;48.348;7.878;2023-04-03T03:50:48;9.70;63.60
68011;DHT22;54794;48.348;7.878;2023-04-03T03:53:15;9.90;63.70
68011;DHT22;54794;48.348;7.878;2023-04-03T03:55:42;9.60;63.60
68011;DHT22;54794;48.348;7.878;2023-04-03T03:58:09;9.60;63.60
68011;DHT22;54794;48.348;7.878;2023-04-03T04:00:37;9.60;63.60
68011;DHT22;54794;48.348;7.878;2023-04-03T04:03:03;9.60;63.60
68011;DHT22;54794;48.348;7.878;2023-04-03T04:05:31;9.60;63.70
68011;DHT22;54794;48.348;7.878;2023-04-03T04:07:58;9.60;63.60
68011;DHT22;54794;48.348;7.878;2023-04-03T04:10:25;9.70;63.60
68011;DHT22;54794;48.348;7.878;2023-04-03T04:12:52;9.50;63.50
68011;DHT22;54794;48.348;7.878;2023-04-03T04:15:18;9.60;63.50
68011;DHT22;54794;48.348;7.878;2023-04-03T04:17:47;9.60;63.50
68011;DHT22;54794;48.348;7.878;2023-04-03T04:20:15;9.60;63.50
68011;DHT22;54794;48.348;7.878;2023-04-03T04:22:42;9.60;63.40
68011;DHT22;54794;48.348;7.878;2023-04-03T04:25:09;9.70;63.50
68011;DHT22;54794;48.348;7.878;2023-04-03T04:27:36;9.60;63.50
68011;DHT22;54794;48.348;7.878;2023-04-03T04:30:04;9.60;63.50
68011;DHT22;54794;48.348;7.878;2023-04-03T04:32:32;9.50;63.50
68011;DHT22;54794;48.348;7.878;2023-04-03T04:34:58;9.50;63.50
68011;DHT22;54794;48.348;7.878;2023-04-03T04:37:26;9.50;63.60
68011;DHT22;54794;48.348;7.878;2023-04-03T04:39:53;9.50;63.60
68011;DHT22;54794;48.348;7.878;2023-04-03T04:42:19;9.40;63.50
68011;DHT22;54794;48.348;7.878;2023-04-03T04:44:46;9.50;63.50
68011;DHT22;54794;48.348;7.878;2023-04-03T04:47:13;9.40;63.50
68011;DHT22;54794;48.348;7.878;2023-04-03T04:49:40;9.40;63.60
68011;DHT22;54794;48.348;7.878;2023-04-03T04:52:07;9.40;63.60
68011;DHT22;54794;48.348;7.878;2023-04-03T04:57:57;9.50;63.40
68011;DHT22;54794;48.348;7.878;2023-04-03T05:00:24;9.40;63.50
68011;DHT22;54794;48.348;7.878;2023-04-03T05:02:52;9.40;63.60
68011;DHT22;54794;48.348;7.878;2023-04-03T05:05:19;9.40;63.50
68011;DHT22;54794;48.348;7.878;2023-04-03T05:07:46;9.40;63.40
68011;DHT22;54794;48.348;7.878;2023-04-03T05:10:22;9.40;63.50
68011;DHT22;54794;48.348;7.878;2023-04-03T05:13:03;9.40;63.40
68011;DHT22;54794;48.348;7.878;2023-04-03T05:15:30;9.40;63.50
68011;DHT22;54794;48.348;7.878;2023-04-03T05:18:02;9.30;63.50
68011;DHT22;54794;48.348;7.878;2023-04-03T05:20:53;9.30;63.30
68011;DHT22;54794;48.348;7.878;2023-04-03T05:23:20;9.30;63.30
68011;DHT22;54794;48.348;7.878;2023-04-03T05:25:47;9.40;63.50
68011;DHT22;54794;48.348;7.878;2023-04-03T05:28:17;9.20;63.40
68011;DHT22;54794;48.348;7.878;2023-04-03T05:30:57;9.30;63.50
68011;DHT22;54794;48.348;7.878;2023-04-03T05:33:53;9.20;63.50
68011;DHT22;54794;48.348;7.878;2023-04-03T05:36:32;9.30;63.70
68011;DHT22;54794;48.348;7.878;2023-04-03T05:38:59;9.30;63.70
68011;DHT22;54794;48.348;7.878;2023-04-03T05:41:29;9.30;63.60
68011;DHT22;54794;48.348;7.878;2023-04-03T05:43:58;9.40;63.70
68011;DHT22;54794;48.348;7.878;2023-04-03T05:46:25;9.30;63.70
68011;DHT22;54794;48.348;7.878;2023-04-03T05:48:53;9.30;63.60
68011;DHT22;54794;48.348;7.878;2023-04-03T05:51:25;9.30;63.70
68011;DHT22;54794;48.348;7.878;2023-04-03T05:54:04;9.30;63.60
68011;DHT22;54794;48.348;7.878;2023-04-03T05:56:36;9.40;63.70
68011;DHT22;54794;48.348;7.878;2023-04-03T05:59:02;9.30;63.70
68011;DHT22;54794;48.348;7.878;2023-04-03T06:01:29;9.30;63.70
68011;DHT22;54794;48.348;7.878;2023-04-03T06:03:57;9.30;63.70
68011;DHT22;54794;48.348;7.878;2023-04-03T06:06:25;9.30;63.60
68011;DHT22;54794;48.348;7.878;2023-04-03T06:08:52;9.40;63.70
68011;DHT22;54794;48.348;7.878;2023-04-03T06:11:25;9.40;63.60
68011;DHT22;54794;48.348;7.878;2023-04-03T06:14:08;9.30;63.60
68011;DHT22;54794;48.348;7.878;2023-04-03T06:16:39;9.30;63.60
68011;DHT22;54794;48.348;7.878;2023-04-03T06:19:07;9.40;63.50
68011;DHT22;54794;48.348;7.878;2023-04-03T06:21:35;9.50;63.60
68011;DHT22;54794;48.348;7.878;2023-04-03T06:24:06;9.40;63.40
68011;DHT22;54794;48.348;7.878;2023-04-03T06:26:36;9.40;63.60
68011;DHT22;54794;48.348;7.878;2023-04-03T06:29:18;9.50;63.60
68011;DHT22;54794;48.348;7.878;2023-04-03T06:32:06;9.50;63.40
68011;DHT22;54794;48.348;7.878;2023-04-03T06:34:33;9.50;63.20
68011;DHT22;54794;48.348;7.878;2023-04-03T06:37:00;9.60;63.10
68011;DHT22;54794;48.348;7.878;2023-04-03T06:39:27;9.60;63.00
68011;DHT22;54794;48.348;7.878;2023-04-03T06:41:54;9.70;62.90
68011;DHT22;54794;48.348;7.878;2023-04-03T06:44:21;9.70;62.60
68011;DHT22;54794;48.348;7.878;2023-04-03T06:46:49;9.70;62.50
68011;DHT22;54794;48.348;7.878;2023-04-03T06:49:16;9.80;62.60
68011;DHT22;54794;48.348;7.878;2023-04-03T06:51:43;9.80;62.50
68011;DHT22;54794;48.348;7.878;2023-04-03T06:54:10;9.90;62.40
68011;DHT22;54794;48.348;7.878;2023-04-03T06:56:37;9.90;62.40
68011;DHT22;54794;48.348;7.878;2023-04-03T06:59:04;9.90;62.30
68011;DHT22;54794;48.348;7.878;2023-04-03T07:01:34;10.00;62.20
68011;DHT22;54794;48.348;7.878;2023-04-03T07:04:25;10.00;61.40
68011;DHT22;54794;48.348;7.878;2023-04-03T07:07:22;10.10;62.40
68011;DHT22;54794;48.348;7.878;2023-04-03T07:09:52;10.10;61.40
68011;DHT22;54794;48.348;7.878;2023-04-03T07:13:02;10.20;61.30
68011;DHT22;54794;48.348;7.878;2023-04-03T07:19:48;10.30;60.50
68011;DHT22;54794;48.348;7.878;2023-04-03T07:22:16;10.30;61.20
68011;DHT22;54794;48.348;7.878;2023-04-03T07:24:48;10.40;60.90
68011;DHT22;54794;48.348;7.878;2023-04-03T07:27:21;10.40;61.00
68011;DHT22;54794;48.348;7.878;2023-04-03T07:30:01;10.50;61.10
68011;DHT22;54794;48.348;7.878;2023-04-03T07:32:38;10.50;59.80
68011;DHT22;54794;48.348;7.878;2023-04-03T07:35:08;10.50;60.60
68011;DHT22;54794;48.348;7.878;2023-04-03T07:37:45;10.60;60.70
68011;DHT22;54794;48.348;7.878;2023-04-03T07:43:10;10.70;60.70
68011;DHT22;54794;48.348;7.878;2023-04-03T07:45:37;10.70;60.40
68011;DHT22;54794;48.348;7.878;2023-04-03T07:48:05;11.20;59.60
68011;DHT22;54794;48.348;7.878;2023-04-03T07:50:44;10.80;58.30
68011;DHT22;54794;48.348;7.878;2023-04-03T07:53:32;10.80;58.90
68011;DHT22;54794;48.348;7.878;2023-04-03T07:56:30;10.80;59.90
68011;DHT22;54794;48.348;7.878;2023-04-03T07:59:07;10.80;59.20
68011;DHT22;54794;48.348;7.878;2023-04-03T08:01:35;10.90;59.70
68011;DHT22;54794;48.348;7.878;2023-04-03T08:04:02;10.90;59.80
68011;DHT22;54794;48.348;7.878;2023-04-03T08:06:31;11.00;60.00
68011;DHT22;54794;48.348;7.878;2023-04-03T08:09:14;11.00;60.60
68011;DHT22;54794;48.348;7.878;2023-04-03T08:11:42;11.00;59.90
68011;DHT22;54794;48.348;7.878;2023-04-03T08:19:41;11.10;59.40
68011;DHT22;54794;48.348;7.878;2023-04-03T08:22:57;11.10;59.50
68011;DHT22;54794;48.348;7.878;2023-04-03T08:29:39;11.10;58.90
68011;DHT22;54794;48.348;7.878;2023-04-03T08:32:09;11.10;59.50
68011;DHT22;54794;48.348;7.878;2023-04-03T08:35:24;11.10;59.30
68011;DHT22;54794;48.348;7.878;2023-04-03T08:38:51;11.10;59.20
68011;DHT22;54794;48.348;7.878;2023-04-03T08:41:42;11.10;59.40
68011;DHT22;54794;48.348;7.878;2023-04-03T08:44:25;11.20;58.90
68011;DHT22;54794;48.348;7.878;2023-04-03T08:47:40;11.20;57.90
68011;DHT22;54794;48.348;7.878;2023-04-03T08:50:43;11.20;58.10
68011;DHT22;54794;48.348;7.878;2023-04-03T08:53:33;11.30;58.90
68011;DHT22;54794;48.348;7.878;2023-04-03T08:56:14;11.30;58.80
68011;DHT22;54794;48.348;7.878;2023-04-03T08:58:56;11.30;58.20
68011;DHT22;54794;48.348;7.878;2023-04-03T09:01:30;11.20;58.10
68011;DHT22;54794;48.348;7.878;2023-04-03T09:04:15;11.30;58.10
68011;DHT22;54794;48.348;7.878;2023-04-03T09:06:50;11.20;57.80
68011;DHT22;54794;48.348;7.878;2023-04-03T09:09:35;11.20;57.60
68011;DHT22;54794;48.348;7.878;2023-04-03T09:12:32;11.10;57.90
68011;DHT22;54794;48.348;7.878;2023-04-03T09:15:20;11.10;57.30
68011;DHT22;54794;48.348;7.878;2023-04-03T09:18:28;11.10;57.10
68011;DHT22;54794;48.348;7.878;2023-04-03T09:21:08;11.00;57.10
68011;DHT22;54794;48.348;7.878;2023-04-03T09:24:00;11.00;57.30
68011;DHT22;54794;48.348;7.878;2023-04-03T09:27:14;11.00;57.80
68011;DHT22;54794;48.348;7.878;2023-04-03T09:30:03;11.10;58.30
68011;DHT22;54794;48.348;7.878;2023-04-03T09:32:38;10.90;58.00
68011;DHT22;54794;48.348;7.878;2023-04-03T09:41:06;10.80;58.00
68011;DHT22;54794;48.348;7.878;2023-04-03T09:44:22;10.40;57.50
68011;DHT22;54794;48.348;7.878;2023-04-03T09:47:48;10.80;57.70
68011;DHT22;54794;48.348;7.878;2023-04-03T09:50:36;10.70;56.20
68011;DHT22;54794;48.348;7.878;2023-04-03T09:53:52;10.80;58.40
68011;DHT22;54794;48.348;7.878;2023-04-03T09:56:30;10.80;58.20
68011;DHT22;54794;48.348;7.878;2023-04-03T09:59:22;10.90;58.10
68011;DHT22;54794;48.348;7.878;2023-04-03T10:06:21;11.00;57.30
68011;DHT22;54794;48.348;7.878;2023-04-03T10:09:01;11.10;57.50
68011;DHT22;54794;48.348;7.878;2023-04-03T10:11:31;11.20;57.80
68011;DHT22;54794;48.348;7.878;2023-04-03T10:14:03;11.30;58.50
68011;DHT22;54794;48.348;7.878;2023-04-03T10:16:40;11.30;58.40
68011;DHT22;54794;48.348;7.878;2023-04-03T10:22:28;11.50;57.10
68011;DHT22;54794;48.348;7.878;2023-04-03T10:25:33;11.60;57.30
68011;DHT22;54794;48.348;7.878;2023-04-03T10:34:05;11.90;57.30
68011;DHT22;54794;48.348;7.878;2023-04-03T10:40:50;12.10;57.90
68011;DHT22;54794;48.348;7.878;2023-04-03T10:46:56;12.30;57.20
68011;DHT22;54794;48.348;7.878;2023-04-03T10:50:57;12.40;57.90
68011;DHT22;54794;48.348;7.878;2023-04-03T10:53:56;12.40;56.90
68011;DHT22;54794;48.348;7.878;2023-04-03T10:56:31;12.50;55.50
68011;DHT22;54794;48.348;7.878;2023-04-03T10:59:41;12.50;56.70
68011;DHT22;54794;48.348;7.878;2023-04-03T11:05:36;12.40;55.60
68011;DHT22;54794;48.348;7.878;2023-04-03T11:09:03;12.40;55.60
68011;DHT22;54794;48.348;7.878;2023-04-03T11:11:43;12.50;55.90
68011;DHT22;54794;48.348;7.878;2023-04-03T11:14:29;12.60;57.00
68011;DHT22;54794;48.348;7.878;2023-04-03T11:17:15;12.70;57.40
68011;DHT22;54794;48.348;7.878;2023-04-03T11:22:32;13.00;56.30
68011;DHT22;54794;48.348;7.878;2023-04-03T11:25:25;13.10;56.70
68011;DHT22;54794;48.348;7.878;2023-04-03T11:28:06;13.20;56.60
68011;DHT22;54794;48.348;7.878;2023-04-03T11:46:19;13.10;55.10
68011;DHT22;54794;48.348;7.878;2023-04-03T11:48:54;13.10;55.70
68011;DHT22;54794;48.348;7.878;2023-04-03T11:51:45;13.10;55.50
68011;DHT22;54794;48.348;7.878;2023-04-03T11:57:44;13.10;53.80
68011;DHT22;54794;48.348;7.878;2023-04-03T12:12:57;13.00;54.50
68011;DHT22;54794;48.348;7.878;2023-04-03T12:15:49;13.10;55.50
68011;DHT22;54794;48.348;7.878;2023-04-03T12:18:53;13.10;55.10
68011;DHT22;54794;48.348;7.878;2023-04-03T12:29:32;13.20;54.90
68011;DHT22;54794;48.348;7.878;2023-04-03T12:32:26;13.30;55.60
68011;DHT22;54794;48.348;7.878;2023-04-03T12:47:23;13.30;53.20
68011;DHT22;54794;48.348;7.878;2023-04-03T12:50:03;13.30;54.40
68011;DHT22;54794;48.348;7.878;2023-04-03T12:53:06;13.30;54.60
68011;DHT22;54794;48.348;7.878;2023-04-03T12:56:25;13.30;54.60
68011;DHT22;54794;48.348;7.878;2023-04-03T12:59:26;13.30;54.60
68011;DHT22;54794;48.348;7.878;2023-04-03T13:06:18;13.40;53.40
68011;DHT22;54794;48.348;7.878;2023-04-03T13:09:06;13.50;54.20
68011;DHT22;54794;48.348;7.878;2023-04-03T13:11:46;13.30;53.90
68011;DHT22;54794;48.348;7.878;2023-04-03T13:14:31;13.30;54.50
68011;DHT22;54794;48.348;7.878;2023-04-03T13:17:12;13.30;54.10
68011;DHT22;54794;48.348;7.878;2023-04-03T13:19:44;13.30;53.90
68011;DHT22;54794;48.348;7.878;2023-04-03T13:22:47;13.30;53.90
68011;DHT22;54794;48.348;7.878;2023-04-03T13:25:35;13.30;53.70
68011;DHT22;54794;48.348;7.878;2023-04-03T13:28:19;13.30;54.00
68011;DHT22;54794;48.348;7.878;2023-04-03T13:31:18;13.10;53.40
68011;DHT22;54794;48.348;7.878;2023-04-03T13:37:01;13.10;53.60
68011;DHT22;54794;48.348;7.878;2023-04-03T13:39:38;13.00;53.30
68011;DHT22;54794;48.348;7.878;2023-04-03T13:42:21;13.10;53.80
68011;DHT22;54794;48.348;7.878;2023-04-03T13:48:14;13.00;53.60
68011;DHT22;54794;48.348;7.878;2023-04-03T13:51:02;13.00;53.20
68011;DHT22;54794;48.348;7.878;2023-04-03T13:53:33;13.00;53.40
68011;DHT22;54794;48.348;7.878;2023-04-03T13:56:16;12.90;53.70
68011;DHT22;54794;48.348;7.878;2023-04-03T13:58:58;12.90;53.20
68011;DHT22;54794;48.348;7.878;2023-04-03T14:04:23;12.90;53.00
68011;DHT22;54794;48.348;7.878;2023-04-03T14:06:52;12.90;53.20
68011;DHT22;54794;48.348;7.878;2023-04-03T14:09:31;12.80;53.50
68011;DHT22;54794;48.348;7.878;2023-04-03T14:12:12;12.80;53.30
68011;DHT22;54794;48.348;7.878;2023-04-03T14:15:02;12.80;53.00
68011;DHT22;54794;48.348;7.878;2023-04-03T14:17:40;12.80;53.50
68011;DHT22;54794;48.348;7.878;2023-04-03T14:20:17;12.80;53.50
68011;DHT22;54794;48.348;7.878;2023-04-03T14:22:55;12.80;52.80
68011;DHT22;54794;48.348;7.878;2023-04-03T14:25:24;12.80;53.00
68011;DHT22;54794;48.348;7.878;2023-04-03T14:27:58;12.70;53.10
68011;DHT22;54794;48.348;7.878;2023-04-03T14:30:39;12.70;52.90
68011;DHT22;54794;48.348;7.878;2023-04-03T14:33:18;12.70;52.70
68011;DHT22;54794;48.348;7.878;2023-04-03T14:35:53;12.60;52.60
68011;DHT22;54794;48.348;7.878;2023-04-03T14:38:31;12.50;53.10
68011;DHT22;54794;48.348;7.878;2023-04-03T14:41:15;12.60;53.00
68011;DHT22;54794;48.348;7.878;2023-04-03T14:43:48;12.50;52.90
68011;DHT22;54794;48.348;7.878;2023-04-03T14:46:41;12.50;52.70
68011;DHT22;54794;48.348;7.878;2023-04-03T14:49:29;12.50;52.50
68011;DHT22;54794;48.348;7.878;2023-04-03T14:52:02;12.50;52.70
68011;DHT22;54794;48.348;7.878;2023-04-03T14:54:30;12.40;53.00
68011;DHT22;54794;48.348;7.878;2023-04-03T14:56:59;12.40;52.80
68011;DHT22;54794;48.348;7.878;2023-04-03T14:59:45;12.40;52.90
68011;DHT22;54794;48.348;7.878;2023-04-03T15:02:32;12.40;52.90
68011;DHT22;54794;48.348;7.878;2023-04-03T15:05:07;12.30;52.20
68011;DHT22;54794;48.348;7.878;2023-04-03T15:12:03;12.30;52.00
68011;DHT22;54794;48.348;7.878;2023-04-03T15:15:01;12.20;52.10
68011;DHT22;54794;48.348;7.878;2023-04-03T15:17:38;12.30;52.90
68011;DHT22;54794;48.348;7.878;2023-04-03T15:20:18;12.20;52.70
68011;DHT22;54794;48.348;7.878;2023-04-03T15:22:47;12.20;52.10
68011;DHT22;54794;48.348;7.878;2023-04-03T15:25:14;12.10;52.80
68011;DHT22;54794;48.348;7.878;2023-04-03T15:27:41;12.10;52.70
68011;DHT22;54794;48.348;7.878;2023-04-03T15:30:11;12.10;52.60
68011;DHT22;54794;48.348;7.878;2023-04-03T15:32:55;12.10;53.00
68011;DHT22;54794;48.348;7.878;2023-04-03T15:35:22;12.00;52.60
68011;DHT22;54794;48.348;7.878;2023-04-03T15:37:50;12.00;52.20
68011;DHT22;54794;48.348;7.878;2023-04-03T15:40:17;12.00;52.60
68011;DHT22;54794;48.348;7.878;2023-04-03T15:42:44;12.00;51.80
68011;DHT22;54794;48.348;7.878;2023-04-03T15:45:43;11.70;52.50
68011;DHT22;54794;48.348;7.878;2023-04-03T15:48:11;11.90;51.80
68011;DHT22;54794;48.348;7.878;2023-04-03T15:50:39;11.90;52.50
68011;DHT22;54794;48.348;7.878;2023-04-03T15:53:28;11.90;52.30
68011;DHT22;54794;48.348;7.878;2023-04-03T16:03:18;11.80;52.00
68011;DHT22;54794;48.348;7.878;2023-04-03T16:06:44;11.70;52.10
68011;DHT22;54794;48.348;7.878;2023-04-03T16:09:12;11.70;52.30
68011;DHT22;54794;48.348;7.878;2023-04-03T16:11:46;11.60;52.40
68011;DHT22;54794;48.348;7.878;2023-04-03T16:14:17;11.70;52.40
68011;DHT22;54794;48.348;7.878;2023-04-03T16:16:45;11.60;52.30
68011;DHT22;54794;48.348;7.878;2023-04-03T16:19:15;11.60;52.20
68011;DHT22;54794;48.348;7.878;2023-04-03T16:21:42;11.60;52.20
68011;DHT22;54794;48.348;7.878;2023-04-03T16:24:13;11.60;52.20
68011;DHT22;54794;48.348;7.878;2023-04-03T16:26:43;11.60;52.30
68011;DHT22;54794;48.348;7.878;2023-04-03T16:29:10;11.60;52.30
68011;DHT22;54794;48.348;7.878;2023-04-03T16:31:37;11.60;53.00
68011;DHT22;54794;48.348;7.878;2023-04-03T16:34:04;11.60;52.20
68011;DHT22;54794;48.348;7.878;2023-04-03T16:36:49;11.60;52.20
68011;DHT22;54794;48.348;7.878;2023-04-03T16:39:19;11.60;52.10
68011;DHT22;54794;48.348;7.878;2023-04-03T16:41:45;11.60;52.60
68011;DHT22;54794;48.348;7.878;2023-04-03T16:44:12;11.60;52.10
68011;DHT22;54794;48.348;7.878;2023-04-03T16:46:40;11.60;51.90
68011;DHT22;54794;48.348;7.878;2023-04-03T16:49:15;11.50;51.90
68011;DHT22;54794;48.348;7.878;2023-04-03T16:51:45;11.50;51.90
68011;DHT22;54794;48.348;7.878;2023-04-03T16:54:22;11.50;52.00
68011;DHT22;54794;48.348;7.878;2023-04-03T16:56:52;11.50;51.80
68011;DHT22;54794;48.348;7.878;2023-04-03T16:59:19;11.50;51.70
68011;DHT22;54794;48.348;7.878;2023-04-03T17:05:56;11.50;51.20
68011;DHT22;54794;48.348;7.878;2023-04-03T17:08:34;11.40;51.90
68011;DHT22;54794;48.348;7.878;2023-04-03T17:11:01;11.40;51.50
68011;DHT22;54794;48.348;7.878;2023-04-03T17:13:28;11.40;51.90
68011;DHT22;54794;48.348;7.878;2023-04-03T17:15:58;11.40;51.60
68011;DHT22;54794;48.348;7.878;2023-04-03T17:18:29;11.40;51.50
68011;DHT22;54794;48.348;7.878;2023-04-03T17:21:08;11.40;51.50
68011;DHT22;54794;48.348;7.878;2023-04-03T17:23:35;11.30;51.30
68011;DHT22;54794;48.348;7.878;2023-04-03T17:26:04;11.30;51.40
68011;DHT22;54794;48.348;7.878;2023-04-03T17:28:49;11.30;51.50
68011;DHT22;54794;48.348;7.878;2023-04-03T17:31:16;11.30;51.40
68011;DHT22;54794;48.348;7.878;2023-04-03T17:33:43;11.20;51.40
68011;DHT22;54794;48.348;7.878;2023-04-03T17:36:11;11.20;51.40
68011;DHT22;54794;48.348;7.878;2023-04-03T17:38:38;11.20;51.50
68011;DHT22;54794;48.348;7.878;2023-04-03T17:41:07;11.20;51.30
68011;DHT22;54794;48.348;7.878;2023-04-03T17:43:35;11.10;51.20
68011;DHT22;54794;48.348;7.878;2023-04-03T17:46:05;11.10;51.40
68011;DHT22;54794;48.348;7.878;2023-04-03T17:48:36;11.10;51.40
68011;DHT22;54794;48.348;7.878;2023-04-03T17:51:17;11.10;51.40
68011;DHT22;54794;48.348;7.878;2023-04-03T17:53:47;11.10;50.90
68011;DHT22;54794;48.348;7.878;2023-04-03T17:56:20;11.00;51.30
68011;DHT22;54794;48.348;7.878;2023-04-03T17:58:50;11.00;51.20
68011;DHT22;54794;48.348;7.878;2023-04-03T18:01:22;11.00;51.30
68011;DHT22;54794;48.348;7.878;2023-04-03T18:04:04;10.90;50.90
68011;DHT22;54794;48.348;7.878;2023-04-03T18:06:51;11.00;51.20
68011;DHT22;54794;48.348;7.878;2023-04-03T18:10:00;10.80;50.90
68011;DHT22;54794;48.348;7.878;2023-04-03T18:12:44;10.80;50.70
68011;DHT22;54794;48.348;7.878;2023-04-03T18:15:30;10.80;51.30
68011;DHT22;54794;48.348;7.878;2023-04-03T18:17:56;10.80;51.20
68011;DHT22;54794;48.348;7.878;2023-04-03T18:20:23;10.90;51.40
68011;DHT22;54794;48.348;7.878;2023-04-03T18:22:51;10.70;51.20
68011;DHT22;54794;48.348;7.878;2023-04-03T18:25:18;10.70;51.70
68011;DHT22;54794;48.348;7.878;2023-04-03T18:27:46;10.70;51.10
68011;DHT22;54794;48.348;7.878;2023-04-03T18:30:15;10.60;51.10
68011;DHT22;54794;48.348;7.878;2023-04-03T18:32:43;10.60;51.10
68011;DHT22;54794;48.348;7.878;2023-04-03T18:35:10;10.60;51.10
68011;DHT22;54794;48.348;7.878;2023-04-03T18:37:38;10.60;51.20
68011;DHT22;54794;48.348;7.878;2023-04-03T18:40:05;10.50;51.10
68011;DHT22;54794;48.348;7.878;2023-04-03T18:42:32;10.50;51.20
68011;DHT22;54794;48.348;7.878;2023-04-03T18:45:01;10.40;51.00
68011;DHT22;54794;48.348;7.878;2023-04-03T18:47:31;10.50;51.10